Time;durP1;ratioP1;P1;durP2;ratioP2;P2;SDS_P1;SDS_P2;PMS_P1;PMS_P2;Temp;Humidity;BMP_temperature;BMP_pressure;BME280_temperature;BME280_humidity;BME280_pressure;Samples;Min_cycle;Max_cycle;Signal;HPM_P1;HPM_P2
2021/09/17 00:00:41;;;;;;;29.50;26.40;;;;;;;18.40;100.00;98481.25;112007;1195;59393;-82
2021/09/17 00:03:10;;;;;;;29.20;26.20;;;;;;;18.38;100.00;98478.04;112004;1195;63120;-82
2021/09/17 00:05:37;;;;;;;29.40;26.30;;;;;;;18.38;100.00;98479.30;112042;1196;60878;-86
2021/09/17 00:08:04;;;;;;;29.60;26.60;;;;;;;18.36;100.00;98475.04;112087;1195;62667;-85
2021/09/17 00:10:31;;;;;;;29.80;26.70;;;;;;;18.34;100.00;98469.67;111852;1195;59431;-85
2021/09/17 00:12:58;;;;;;;30.00;26.80;;;;;;;18.36;100.00;98468.36;112019;1195;59741;-88
2021/09/17 00:15:25;;;;;;;30.20;27.00;;;;;;;18.35;100.00;98466.64;111896;1195;64445;-84
2021/09/17 00:17:51;;;;;;;31.80;28.20;;;;;;;18.32;100.00;98462.02;111991;1195;59368;-83
2021/09/17 00:20:18;;;;;;;30.60;27.30;;;;;;;18.29;100.00;98461.36;112041;1196;62454;-84
2021/09/17 00:22:46;;;;;;;29.30;26.20;;;;;;;18.27;100.00;98461.21;111874;1195;59534;-83
2021/09/17 00:25:13;;;;;;;28.10;25.10;;;;;;;18.24;100.00;98455.95;111892;1195;59418;-83
2021/09/17 00:27:39;;;;;;;29.00;26.10;;;;;;;18.20;100.00;98451.52;111933;1195;64396;-82
2021/09/17 00:30:07;;;;;;;29.50;26.30;;;;;;;18.17;100.00;98450.41;111884;1195;61010;-82
2021/09/17 00:32:34;;;;;;;29.90;26.90;;;;;;;18.15;100.00;98447.56;111867;1195;63890;-82
2021/09/17 00:35:01;;;;;;;29.00;26.00;;;;;;;18.17;100.00;98447.91;111996;1195;59451;-82
2021/09/17 00:37:28;;;;;;;29.50;25.50;;;;;;;18.18;100.00;98448.59;112525;1190;59380;-82
2021/09/17 00:39:55;;;;;;;31.50;27.60;;;;;;;18.19;100.00;98447.35;112561;1190;63041;-82
2021/09/17 00:42:21;;;;;;;27.70;24.70;;;;;;;18.24;100.00;98447.60;112592;1190;59888;-83
2021/09/17 00:44:48;;;;;;;28.40;25.40;;;;;;;18.30;100.00;98448.21;112641;1190;64105;-82
2021/09/17 00:47:15;;;;;;;29.20;26.30;;;;;;;18.34;100.00;98446.29;112598;1189;59446;-82
2021/09/17 00:49:41;;;;;;;30.60;27.20;;;;;;;18.36;100.00;98441.39;112603;1189;59473;-83
2021/09/17 00:52:09;;;;;;;30.00;27.10;;;;;;;18.37;100.00;98438.73;112624;1190;64068;-84
2021/09/17 00:54:36;;;;;;;29.60;26.00;;;;;;;18.35;100.00;98432.81;112564;1190;60247;-82
2021/09/17 00:57:03;;;;;;;28.00;25.00;;;;;;;18.33;100.00;98431.27;112646;1190;63579;-82
2021/09/17 00:59:30;;;;;;;29.60;26.30;;;;;;;18.32;100.00;98425.63;112593;1189;59436;-82
2021/09/17 01:01:56;;;;;;;28.00;24.90;;;;;;;18.31;100.00;98419.28;112597;1190;59433;-82
2021/09/17 01:04:23;;;;;;;27.00;24.30;;;;;;;18.27;100.00;98414.70;112613;1190;64234;-82
2021/09/17 01:06:50;;;;;;;27.50;24.70;;;;;;;18.23;100.00;98414.05;112605;1190;59366;-82
2021/09/17 01:09:17;;;;;;;27.90;24.70;;;;;;;18.18;100.00;98409.55;112561;1190;65015;-82
2021/09/17 01:11:44;;;;;;;29.30;26.20;;;;;;;18.13;100.00;98408.59;112662;1190;59385;-84
2021/09/17 01:14:11;;;;;;;28.00;25.00;;;;;;;18.11;100.00;98406.48;112574;1190;59401;-82
2021/09/17 01:16:37;;;;;;;28.20;25.30;;;;;;;18.10;100.00;98401.04;112543;1190;64269;-82
2021/09/17 01:19:04;;;;;;;27.50;24.70;;;;;;;18.07;100.00;98395.61;112508;1190;59768;-83
2021/09/17 01:21:31;;;;;;;27.90;25.00;;;;;;;18.04;100.00;98390.58;112593;1190;63586;-82
2021/09/17 01:23:57;;;;;;;30.00;27.00;;;;;;;18.01;100.00;98387.10;112557;1190;59433;-82
2021/09/17 01:26:24;;;;;;;28.70;25.90;;;;;;;17.99;100.00;98384.40;112578;1189;59356;-82
2021/09/17 01:28:50;;;;;;;28.20;25.40;;;;;;;17.97;100.00;98386.24;112598;1190;63067;-82
2021/09/17 01:31:17;;;;;;;27.70;24.80;;;;;;;17.94;100.00;98382.23;112596;1190;59437;-81
2021/09/17 01:33:44;;;;;;;29.10;26.20;;;;;;;17.92;100.00;98378.02;112595;1189;64987;-83
2021/09/17 01:36:11;;;;;;;27.70;25.00;;;;;;;17.89;100.00;98378.64;112593;1190;59434;-82
2021/09/17 01:38:40;;;;;;;26.60;23.20;;;;;;;17.85;100.00;98380.19;112662;1190;59423;-82
2021/09/17 01:41:08;;;;;;;27.30;24.50;;;;;;;17.81;100.00;98381.38;112694;1190;62990;-82
2021/09/17 01:43:34;;;;;;;25.90;23.30;;;;;;;17.77;100.00;98383.38;112539;1190;60273;-82
2021/09/17 01:46:01;;;;;;;26.20;23.40;;;;;;;17.75;100.00;98386.65;112604;1190;64823;-82
2021/09/17 01:48:29;;;;;;;28.90;25.40;;;;;;;17.71;100.00;98387.88;112606;1190;59443;-83
2021/09/17 01:50:57;;;;;;;26.50;23.80;;;;;;;17.64;100.00;98385.99;112604;1190;59544;-84
2021/09/17 01:53:24;;;;;;;28.40;25.40;;;;;;;17.57;100.00;98381.67;112577;1190;64118;-84
2021/09/17 01:55:50;;;;;;;25.90;23.00;;;;;;;17.50;100.00;98375.05;112570;1190;59751;-85
2021/09/17 01:58:17;;;;;;;26.20;23.70;;;;;;;17.43;100.00;98368.91;112412;1190;64034;-85
2021/09/17 02:00:43;;;;;;;24.60;22.00;;;;;;;17.36;100.00;98367.53;112633;1190;59442;-85
2021/09/17 02:03:10;;;;;;;25.30;22.70;;;;;;;17.28;100.00;98368.33;112565;1189;59446;-84
2021/09/17 02:05:37;;;;;;;23.80;21.30;;;;;;;17.25;100.00;98367.58;112636;1190;64483;-84
2021/09/17 02:08:04;;;;;;;25.70;23.10;;;;;;;17.22;100.00;98367.70;112622;1190;59976;-84
2021/09/17 02:10:30;;;;;;;29.60;26.40;;;;;;;17.20;100.00;98368.55;112567;1190;63841;-84
2021/09/17 02:12:57;;;;;;;28.70;25.20;;;;;;;17.14;100.00;98366.48;112538;1190;59417;-84
2021/09/17 02:15:23;;;;;;;27.70;24.60;;;;;;;17.10;100.00;98365.41;112645;1190;59389;-84
2021/09/17 02:17:50;;;;;;;28.50;25.50;;;;;;;17.04;100.00;98362.98;112565;1190;64406;-84
2021/09/17 02:20:17;;;;;;;27.80;24.40;;;;;;;16.99;100.00;98367.13;112629;1190;59949;-84
2021/09/17 02:22:43;;;;;;;28.30;25.30;;;;;;;16.95;100.00;98365.33;112628;1189;62435;-84
2021/09/17 02:25:10;;;;;;;31.30;27.90;;;;;;;16.91;100.00;98359.11;112566;1190;59437;-84
2021/09/17 02:27:37;;;;;;;28.80;24.40;;;;;;;16.86;100.00;98358.03;112549;1190;59395;-83
2021/09/17 02:30:06;;;;;;;28.00;25.00;;;;;;;16.81;100.00;98355.64;112604;1190;64126;-83
2021/09/17 02:32:33;;;;;;;23.00;20.50;;;;;;;16.76;100.00;98355.52;112654;1190;59970;-85
2021/09/17 02:35:00;;;;;;;20.90;18.80;;;;;;;16.68;100.00;98353.36;112595;1190;63849;-86
2021/09/17 02:37:27;;;;;;;20.30;18.20;;;;;;;16.54;100.00;98353.25;112626;1190;59363;-84
2021/09/17 02:39:53;;;;;;;17.90;15.90;;;;;;;16.40;100.00;98357.09;112515;1190;59475;-84
2021/09/17 02:42:21;;;;;;;18.90;16.60;;;;;;;16.30;100.00;98356.02;112606;1190;64864;-88
2021/09/17 02:44:48;;;;;;;20.80;15.20;;;;;;;16.19;100.00;98359.27;112961;1190;60086;-86
2021/09/17 02:47:14;;;;;;;16.60;15.00;;;;;;;16.09;100.00;98359.55;112745;1190;64939;-84
2021/09/17 02:49:41;;;;;;;18.30;16.50;;;;;;;16.02;100.00;98358.27;112623;1189;59321;-85
2021/09/17 02:52:08;;;;;;;18.10;16.40;;;;;;;15.96;100.00;98362.59;113285;1190;59423;-84
2021/09/17 02:54:34;;;;;;;16.90;15.20;;;;;;;15.91;100.00;98358.98;112841;1190;65192;-83
2021/09/17 02:57:01;;;;;;;17.20;15.60;;;;;;;15.86;100.00;98361.98;112592;1190;60001;-86
2021/09/17 02:59:28;;;;;;;17.60;15.80;;;;;;;15.84;100.00;98364.52;112659;1190;63979;-89
2021/09/17 03:01:54;;;;;;;16.40;14.80;;;;;;;15.82;100.00;98362.38;112631;1190;59371;-88
2021/09/17 03:04:21;;;;;;;18.30;16.50;;;;;;;15.80;100.00;98358.62;112635;1190;59408;-85
2021/09/17 03:06:49;;;;;;;17.80;16.00;;;;;;;15.78;100.00;98356.83;112633;1190;64388;-84
2021/09/17 03:09:15;;;;;;;18.70;16.90;;;;;;;15.77;100.00;98357.85;112659;1190;60209;-84
2021/09/17 03:11:42;;;;;;;17.70;15.70;;;;;;;15.75;100.00;98359.63;112616;1190;64970;-85
2021/09/17 03:14:09;;;;;;;18.40;16.60;;;;;;;15.73;100.00;98359.50;112647;1189;60189;-84
2021/09/17 03:16:35;;;;;;;17.80;16.00;;;;;;;15.72;100.00;98357.13;112645;1190;60217;-84
2021/09/17 03:19:02;;;;;;;18.40;16.70;;;;;;;15.71;100.00;98355.23;112496;1190;66059;-84
2021/09/17 03:21:28;;;;;;;19.10;17.30;;;;;;;15.69;100.00;98355.17;112570;1190;60211;-84
2021/09/17 03:23:55;;;;;;;19.20;16.90;;;;;;;15.67;100.00;98351.43;112598;1190;63872;-84
2021/09/17 03:26:22;;;;;;;19.80;17.80;;;;;;;15.65;100.00;98356.54;112591;1190;60233;-83
2021/09/17 03:28:48;;;;;;;19.20;17.40;;;;;;;15.63;100.00;98357.83;112643;1189;60166;-83
2021/09/17 03:31:15;;;;;;;19.70;17.70;;;;;;;15.61;100.00;98359.02;112586;1190;64951;-83
2021/09/17 03:33:42;;;;;;;21.70;19.50;;;;;;;15.59;100.00;98356.34;112628;1190;60253;-84
2021/09/17 03:36:08;;;;;;;21.30;18.80;;;;;;;15.55;100.00;98359.02;112592;1190;62630;-84
2021/09/17 03:38:35;;;;;;;22.40;19.20;;;;;;;15.53;100.00;98360.73;112628;1190;60102;-83
2021/09/17 03:41:03;;;;;;;21.60;19.10;;;;;;;15.50;100.00;98356.41;112601;1190;60221;-84
2021/09/17 03:43:30;;;;;;;20.40;17.70;;;;;;;15.45;100.00;98357.91;112612;1190;63895;-83
2021/09/17 03:45:56;;;;;;;21.80;18.40;;;;;;;15.39;100.00;98361.94;112561;1189;60160;-83
2021/09/17 03:48:23;;;;;;;19.80;17.80;;;;;;;15.32;100.00;98358.04;112647;1176;62637;-83
2021/09/17 03:50:50;;;;;;;19.10;17.20;;;;;;;15.28;100.00;98359.52;112606;1190;60214;-83
2021/09/17 03:53:17;;;;;;;17.80;15.70;;;;;;;15.26;100.00;98359.06;112591;1190;60173;-83
2021/09/17 03:55:44;;;;;;;18.40;16.50;;;;;;;15.22;100.00;98361.45;112600;1190;63969;-83
2021/09/17 03:58:12;;;;;;;17.70;15.60;;;;;;;15.17;100.00;98363.34;112633;1190;60774;-84
2021/09/17 04:00:39;;;;;;;16.90;14.70;;;;;;;15.11;100.00;98361.35;112712;1190;64006;-84
2021/09/17 04:03:05;;;;;;;16.00;14.10;;;;;;;15.07;100.00;98363.40;112583;1183;60143;-83
2021/09/17 04:05:32;;;;;;;16.30;14.00;;;;;;;15.02;100.00;98365.95;112613;1189;60173;-83
2021/09/17 04:07:59;;;;;;;15.70;13.90;;;;;;;14.98;100.00;98368.88;112545;1191;66174;-83
2021/09/17 04:10:26;;;;;;;16.00;13.10;;;;;;;14.94;100.00;98368.38;112550;1190;60522;-84
2021/09/17 04:12:53;;;;;;;16.50;12.50;;;;;;;14.89;100.00;98375.45;112539;1190;64155;-84
2021/09/17 04:15:19;;;;;;;17.40;12.60;;;;;;;14.86;100.00;98374.85;112579;1190;60811;-84
2021/09/17 04:17:46;;;;;;;17.90;14.00;;;;;;;14.83;100.00;98377.45;112590;1190;60226;-84
2021/09/17 04:20:13;;;;;;;20.80;13.60;;;;;;;14.79;100.00;98379.10;112599;1190;64904;-84
2021/09/17 04:22:40;;;;;;;18.40;14.60;;;;;;;14.76;100.00;98378.50;112613;1190;60791;-84
2021/09/17 04:25:09;;;;;;;21.40;15.60;;;;;;;14.74;100.00;98380.81;112578;1190;64048;-84
2021/09/17 04:27:36;;;;;;;16.40;14.40;;;;;;;14.71;100.00;98382.27;112684;1189;60305;-85
2021/09/17 04:30:05;;;;;;;16.90;15.00;;;;;;;14.70;100.00;98377.96;112581;1190;60239;-84
2021/09/17 04:32:32;;;;;;;19.50;16.20;;;;;;;14.69;100.00;98380.36;112617;1189;63846;-83
2021/09/17 04:34:59;;;;;;;18.50;16.50;;;;;;;14.69;100.00;98384.70;112642;1189;60131;-84
2021/09/17 04:37:26;;;;;;;19.50;17.60;;;;;;;14.68;100.00;98384.05;112602;1190;62468;-84
2021/09/17 04:39:52;;;;;;;20.00;17.70;;;;;;;14.70;100.00;98388.00;112573;1189;60160;-85
2021/09/17 04:42:19;;;;;;;17.50;15.60;;;;;;;14.70;100.00;98389.36;112617;1190;60243;-85
2021/09/17 04:44:46;;;;;;;20.40;18.20;;;;;;;14.69;100.00;98385.15;112609;1190;65179;-85
2021/09/17 04:47:13;;;;;;;18.30;16.60;;;;;;;14.70;100.00;98385.23;112594;1174;60253;-84
2021/09/17 04:49:39;;;;;;;18.10;16.10;;;;;;;14.72;100.00;98383.48;112318;1189;62484;-84
2021/09/17 04:52:06;;;;;;;17.00;15.50;;;;;;;14.72;100.00;98384.02;112497;1190;60232;-85
2021/09/17 04:54:33;;;;;;;15.20;13.80;;;;;;;14.74;100.00;98388.16;112645;1190;60213;-84
2021/09/17 04:57:01;;;;;;;15.80;14.30;;;;;;;14.74;100.00;98388.30;112644;1191;64863;-85
2021/09/17 04:59:28;;;;;;;13.60;12.30;;;;;;;14.75;100.00;98391.27;112637;1190;60239;-85
2021/09/17 05:01:54;;;;;;;13.00;11.80;;;;;;;14.75;100.00;98398.77;112675;1190;63824;-84
2021/09/17 05:04:21;;;;;;;11.40;10.30;;;;;;;14.74;100.00;98400.48;112599;1190;60598;-85
2021/09/17 05:06:48;;;;;;;13.00;11.80;;;;;;;14.74;100.00;98406.20;112665;1190;60238;-85
2021/09/17 05:09:15;;;;;;;11.80;10.70;;;;;;;14.73;100.00;98412.20;112640;1190;63805;-85
2021/09/17 05:11:42;;;;;;;11.50;10.50;;;;;;;14.72;100.00;98413.38;112629;1190;60330;-85
2021/09/17 05:14:08;;;;;;;11.30;10.20;;;;;;;14.71;100.00;98418.80;112593;1190;64032;-84
2021/09/17 05:16:35;;;;;;;9.90;8.90;;;;;;;14.72;100.00;98423.72;112596;1189;60265;-85
2021/09/17 05:19:02;;;;;;;7.60;6.30;;;;;;;14.73;100.00;98431.00;112680;1190;60151;-86
2021/09/17 05:21:29;;;;;;;3.80;3.40;;;;;;;14.67;100.00;98435.04;112676;1191;65285;-85
2021/09/17 05:23:56;;;;;;;3.90;2.80;;;;;;;14.60;100.00;98440.44;112693;1190;60184;-85
2021/09/17 05:26:22;;;;;;;3.20;2.60;;;;;;;14.50;100.00;98448.94;112665;1190;62399;-85
2021/09/17 05:28:49;;;;;;;4.00;3.10;;;;;;;14.41;100.00;98455.20;112596;1190;60222;-84
2021/09/17 05:31:16;;;;;;;4.00;3.30;;;;;;;14.32;100.00;98459.54;112606;1189;60882;-84
2021/09/17 05:33:42;;;;;;;3.40;3.20;;;;;;;14.26;100.00;98462.04;112595;1190;65344;-84
2021/09/17 05:36:09;;;;;;;5.30;4.80;;;;;;;14.23;100.00;98464.80;112572;1190;60233;-84
2021/09/17 05:38:36;;;;;;;3.30;3.00;;;;;;;14.20;100.00;98472.44;112626;1189;63966;-84
2021/09/17 05:41:02;;;;;;;4.90;2.80;;;;;;;14.13;100.00;98473.22;112661;1190;60219;-84
2021/09/17 05:43:29;;;;;;;2.70;2.50;;;;;;;14.05;100.00;98473.05;112626;1190;60224;-83
2021/09/17 05:45:56;;;;;;;4.30;2.80;;;;;;;14.02;100.00;98476.70;112624;1190;66205;-83
2021/09/17 05:48:23;;;;;;;2.60;2.40;;;;;;;14.00;100.00;98479.98;112647;1190;60167;-83
2021/09/17 05:50:51;;;;;;;2.60;2.30;;;;;;;13.97;100.00;98480.37;112576;1190;63806;-83
2021/09/17 05:53:18;;;;;;;3.00;2.50;;;;;;;13.96;100.00;98482.58;112648;1190;60239;-84
2021/09/17 05:55:45;;;;;;;2.70;2.50;;;;;;;13.94;100.00;98484.77;112828;1190;60204;-86
2021/09/17 05:58:12;;;;;;;3.10;2.80;;;;;;;13.93;100.00;98488.24;112714;1190;63673;-83
2021/09/17 06:00:38;;;;;;;3.00;2.70;;;;;;;13.92;100.00;98487.94;112629;1174;60250;-83
2021/09/17 06:03:05;;;;;;;4.50;2.90;;;;;;;13.92;100.00;98488.15;112867;1190;65054;-84
2021/09/17 06:05:32;;;;;;;4.90;3.20;;;;;;;13.93;100.00;98484.33;112766;1190;60296;-85
2021/09/17 06:07:58;;;;;;;4.70;3.30;;;;;;;13.92;100.00;98481.93;112680;1190;60216;-86
2021/09/17 06:10:26;;;;;;;3.20;2.50;;;;;;;13.91;100.00;98484.48;112598;1190;65934;-86
2021/09/17 06:12:52;;;;;;;4.60;3.20;;;;;;;13.92;100.00;98484.91;112642;1190;60230;-84
2021/09/17 06:15:19;;;;;;;4.20;3.60;;;;;;;13.91;100.00;98483.05;112681;1190;65450;-84
2021/09/17 06:17:46;;;;;;;4.20;3.70;;;;;;;13.95;100.00;98484.11;112683;1189;60700;-84
2021/09/17 06:20:14;;;;;;;5.70;4.30;;;;;;;13.97;100.00;98483.80;112616;1183;60231;-84
2021/09/17 06:22:43;;;;;;;4.80;4.40;;;;;;;13.99;100.00;98481.44;112638;1190;66224;-84
2021/09/17 06:25:10;;;;;;;5.40;4.70;;;;;;;14.04;100.00;98481.57;112580;1190;60141;-84
2021/09/17 06:27:37;;;;;;;6.20;5.60;;;;;;;14.08;100.00;98481.73;112646;1190;62322;-84
2021/09/17 06:30:05;;;;;;;7.80;6.20;;;;;;;14.12;100.00;98480.29;112627;1190;60350;-82
2021/09/17 06:32:32;;;;;;;7.20;6.50;;;;;;;14.14;100.00;98479.44;112629;1190;60198;-84
2021/09/17 06:34:58;;;;;;;7.40;6.80;;;;;;;14.15;100.00;98480.73;112619;1190;64968;-84
2021/09/17 06:37:25;;;;;;;7.80;7.00;;;;;;;14.15;100.00;98480.60;112665;1190;60228;-84
2021/09/17 06:39:52;;;;;;;7.80;7.20;;;;;;;14.12;100.00;98480.13;112555;1192;65272;-83
2021/09/17 06:42:18;;;;;;;7.60;6.80;;;;;;;14.14;100.00;98482.49;112568;1190;60152;-84
2021/09/17 06:44:45;;;;;;;6.50;5.90;;;;;;;14.13;100.00;98487.17;112632;1190;60268;-84
2021/09/17 06:47:12;;;;;;;6.50;5.90;;;;;;;14.10;100.00;98486.02;112659;1190;65185;-83
2021/09/17 06:49:38;;;;;;;6.40;5.80;;;;;;;14.08;100.00;98484.23;112670;1190;60206;-84
2021/09/17 06:52:06;;;;;;;6.70;6.10;;;;;;;14.09;100.00;98487.78;112500;1190;63999;-84
2021/09/17 06:54:32;;;;;;;6.00;5.50;;;;;;;14.10;100.00;98487.98;112610;1190;60250;-84
2021/09/17 06:56:59;;;;;;;5.90;5.30;;;;;;;14.11;100.00;98490.58;112614;1190;60246;-83
2021/09/17 06:59:26;;;;;;;6.10;5.20;;;;;;;14.13;100.00;98490.41;112621;1190;65193;-83
2021/09/17 07:01:52;;;;;;;5.00;4.40;;;;;;;14.14;100.00;98491.21;112634;1190;60121;-83
2021/09/17 07:04:19;;;;;;;6.30;4.80;;;;;;;14.13;100.00;98492.36;112656;1190;63854;-83
2021/09/17 07:06:45;;;;;;;5.20;4.80;;;;;;;14.15;100.00;98493.11;112719;1183;60201;-83
2021/09/17 07:09:13;;;;;;;5.70;5.20;;;;;;;14.16;100.00;98492.84;112687;1190;60239;-83
2021/09/17 07:11:40;;;;;;;5.70;5.20;;;;;;;14.17;100.00;98495.95;112635;1190;65169;-83
2021/09/17 07:14:06;;;;;;;5.80;5.10;;;;;;;14.19;100.00;98495.58;112613;1190;60693;-83
2021/09/17 07:16:33;;;;;;;6.70;6.20;;;;;;;14.20;100.00;98500.98;112592;1190;63979;-83
2021/09/17 07:18:59;;;;;;;5.20;4.80;;;;;;;14.24;100.00;98502.42;112579;1190;60642;-83
2021/09/17 07:21:26;;;;;;;6.00;4.90;;;;;;;14.29;100.00;98501.96;112671;1189;60124;-83
2021/09/17 07:23:53;;;;;;;4.30;3.80;;;;;;;14.37;100.00;98502.20;112691;1190;65860;-83
2021/09/17 07:26:19;;;;;;;6.60;4.10;;;;;;;14.41;100.00;98505.38;112639;1191;61033;-83
2021/09/17 07:28:46;;;;;;;5.40;4.40;;;;;;;14.44;100.00;98505.23;112595;1190;64011;-83
2021/09/17 07:31:13;;;;;;;5.00;3.70;;;;;;;14.47;100.00;98502.48;112611;1190;60264;-83
2021/09/17 07:33:39;;;;;;;4.70;3.90;;;;;;;14.52;100.00;98501.56;112581;1189;60095;-83
2021/09/17 07:36:06;;;;;;;4.20;3.70;;;;;;;14.57;100.00;98500.94;112526;1190;65122;-84
2021/09/17 07:38:33;;;;;;;6.70;4.00;;;;;;;14.63;100.00;98503.95;112593;1190;60264;-84
2021/09/17 07:40:59;;;;;;;5.40;3.90;;;;;;;14.71;100.00;98507.71;112523;1190;64989;-83
2021/09/17 07:43:26;;;;;;;4.50;4.10;;;;;;;14.73;100.00;98509.30;112551;1191;60329;-84
2021/09/17 07:45:52;;;;;;;5.80;4.30;;;;;;;14.78;100.00;98509.60;112628;1190;60189;-82
2021/09/17 07:48:20;;;;;;;4.40;3.80;;;;;;;14.88;100.00;98512.55;112648;1190;66197;-83
2021/09/17 07:50:46;;;;;;;4.20;3.80;;;;;;;14.91;100.00;98511.70;112589;1190;61671;-83
2021/09/17 07:53:14;;;;;;;3.50;3.10;;;;;;;14.95;100.00;98511.20;112568;1192;63745;-83
2021/09/17 07:55:41;;;;;;;4.50;3.90;;;;;;;14.99;100.00;98520.51;112561;1190;60194;-83
2021/09/17 07:58:08;;;;;;;4.80;3.20;;;;;;;15.02;100.00;98520.22;112620;1190;60239;-85
2021/09/17 08:00:36;;;;;;;3.70;2.80;;;;;;;15.04;100.00;98518.30;112647;1190;65249;-82
2021/09/17 08:03:04;;;;;;;3.20;2.80;;;;;;;15.05;100.00;98517.77;112617;1190;60239;-85
2021/09/17 08:05:31;;;;;;;5.50;3.00;;;;;;;15.09;100.00;98519.95;112695;1175;64690;-84
2021/09/17 08:07:58;;;;;;;3.00;2.60;;;;;;;15.13;100.00;98519.34;112583;1190;60229;-85
2021/09/17 08:10:25;;;;;;;3.10;2.80;;;;;;;15.18;100.00;98522.33;112672;1190;60221;-85
2021/09/17 08:12:52;;;;;;;4.30;3.50;;;;;;;15.25;100.00;98521.46;112650;1190;63814;-84
2021/09/17 08:15:19;;;;;;;4.10;3.20;;;;;;;15.31;100.00;98522.14;112682;1190;60280;-84
2021/09/17 08:17:46;;;;;;;3.90;3.50;;;;;;;15.34;100.00;98520.08;112616;1190;63650;-84
2021/09/17 08:20:13;;;;;;;3.60;3.20;;;;;;;15.38;100.00;98519.54;112648;1190;60160;-84
2021/09/17 08:22:41;;;;;;;5.20;4.20;;;;;;;15.44;100.00;98519.64;112640;1190;60201;-84
2021/09/17 08:25:08;;;;;;;4.40;4.00;;;;;;;15.46;100.00;98519.44;112658;1190;65224;-84
2021/09/17 08:27:39;;;;;;;5.20;3.90;;;;;;;15.45;100.00;98522.49;112645;1190;60242;-83
2021/09/17 08:30:06;;;;;;;;;;;;;;;15.45;100.00;98521.20;112649;1190;63480;-83
2021/09/17 08:32:33;;;;;;;6.50;4.10;;;;;;;15.46;100.00;98525.00;112682;1190;60159;-83
2021/09/17 08:34:59;;;;;;;4.80;4.10;;;;;;;15.45;100.00;98526.19;112644;1190;60239;-83
2021/09/17 08:37:29;;;;;;;5.20;3.60;;;;;;;15.49;100.00;98526.19;112625;1190;63846;-83
2021/09/17 08:39:55;;;;;;;4.50;3.40;;;;;;;15.54;100.00;98526.73;112595;1190;60170;-83
2021/09/17 08:42:22;;;;;;;4.70;3.70;;;;;;;15.65;100.00;98521.11;112614;1190;62772;-84
2021/09/17 08:44:49;;;;;;;5.50;4.20;;;;;;;15.72;100.00;98527.22;112615;1189;60258;-83
2021/09/17 08:47:19;;;;;;;5.20;3.90;;;;;;;15.78;100.00;98526.99;112588;1190;60241;-83
2021/09/17 08:49:46;;;;;;;4.90;4.20;;;;;;;15.81;100.00;98526.15;112532;1190;63609;-86
2021/09/17 08:52:13;;;;;;;4.50;4.00;;;;;;;15.86;100.00;98527.38;112599;1190;60198;-85
2021/09/17 08:54:39;;;;;;;5.60;4.60;;;;;;;15.90;100.00;98528.98;112593;1190;64684;-84
2021/09/17 08:57:06;;;;;;;5.40;4.90;;;;;;;15.97;100.00;98528.63;112593;1190;60250;-84
2021/09/17 08:59:34;;;;;;;6.40;4.80;;;;;;;16.05;100.00;98529.84;112605;1190;60238;-84
2021/09/17 09:02:24;;;;;;;7.10;6.50;;;;;;;16.10;100.00;98529.70;112646;1190;65085;-83
2021/09/17 09:05:03;;;;;;;7.00;6.40;;;;;;;16.16;100.00;98531.48;112622;1190;60334;-85
2021/09/17 09:07:38;;;;;;;5.40;4.50;;;;;;;16.16;100.00;98533.96;112843;1190;62355;-85
2021/09/17 09:10:14;;;;;;;5.10;3.80;;;;;;;16.11;100.00;98531.89;112781;1190;60586;-84
2021/09/17 09:12:47;;;;;;;5.30;3.70;;;;;;;16.05;100.00;98529.46;112659;1190;60256;-85
2021/09/17 09:15:25;;;;;;;6.60;5.40;;;;;;;15.97;100.00;98530.21;113082;1190;65192;-85
2021/09/17 09:18:06;;;;;;;5.00;4.50;;;;;;;16.01;100.00;98530.90;112709;1190;60342;-84
2021/09/17 09:20:36;;;;;;;5.50;3.70;;;;;;;16.12;100.00;98529.45;112632;1190;64028;-86
2021/09/17 09:23:24;;;;;;;5.00;3.00;;;;;;;16.20;100.00;98532.67;112682;1190;60155;-84
2021/09/17 09:25:51;;;;;;;4.30;3.90;;;;;;;16.26;100.00;98529.73;112693;1190;60249;-85
2021/09/17 09:28:23;;;;;;;5.20;4.80;;;;;;;16.37;100.00;98524.40;112633;1190;63830;-83
2021/09/17 09:30:52;;;;;;;6.20;5.60;;;;;;;16.43;100.00;98522.70;112636;1190;60370;-83
2021/09/17 09:33:28;;;;;;;5.90;4.60;;;;;;;16.48;99.86;98524.34;112680;1190;63994;-84
2021/09/17 09:36:06;;;;;;;4.90;4.40;;;;;;;16.54;99.89;98522.53;112635;1190;60239;-83
2021/09/17 09:38:54;;;;;;;7.50;6.80;;;;;;;16.57;99.88;98521.52;112686;1190;60140;-84
2021/09/17 09:41:28;;;;;;;10.10;9.00;;;;;;;16.55;99.31;98521.70;112613;1190;65287;-83
2021/09/17 09:43:57;;;;;;;11.30;10.30;;;;;;;16.57;99.42;98515.88;112595;1190;60699;-84
2021/09/17 09:46:25;;;;;;;10.00;9.10;;;;;;;16.59;99.17;98517.31;112629;1189;62624;-85
2021/09/17 09:49:09;;;;;;;8.50;7.70;;;;;;;16.56;99.12;98514.98;112636;1190;60233;-85
2021/09/17 09:51:41;;;;;;;8.30;7.60;;;;;;;16.54;99.19;98515.31;112631;1190;60916;-85
2021/09/17 09:54:10;;;;;;;7.40;6.70;;;;;;;16.63;99.25;98515.67;112649;1190;65208;-85
2021/09/17 09:56:38;;;;;;;4.60;4.20;;;;;;;16.75;98.68;98516.14;112659;1190;61012;-85
2021/09/17 09:59:07;;;;;;;4.50;3.70;;;;;;;16.78;97.53;98515.64;112667;1190;62748;-85
2021/09/17 10:01:39;;;;;;;4.30;3.90;;;;;;;16.87;97.41;98515.63;112671;1190;60178;-84
2021/09/17 10:04:07;;;;;;;4.50;4.10;;;;;;;16.96;97.15;98513.71;112633;1190;60145;-85
2021/09/17 12:23:45;;;;;;;13.70;12.50;;;;;;;18.33;93.49;98461.27;115195;1188;64852;-85
2021/09/17 12:26:15;;;;;;;13.00;11.90;;;;;;;18.56;93.00;98459.02;112845;1195;60249;-84
2021/09/17 12:28:48;;;;;;;13.70;12.50;;;;;;;18.74;92.28;98453.81;112855;1196;60179;-84
2021/09/17 12:31:35;;;;;;;13.80;12.70;;;;;;;18.98;92.41;98452.13;112581;1196;63850;-88
2021/09/17 12:34:06;;;;;;;14.40;13.20;;;;;;;19.15;92.08;98448.92;112560;1195;60250;-87
2021/09/17 12:36:34;;;;;;;16.60;15.10;;;;;;;19.28;91.90;98446.05;112357;1196;63975;-86
2021/09/17 12:39:04;;;;;;;15.10;13.70;;;;;;;19.35;91.30;98448.93;112435;1196;60230;-85
2021/09/17 12:41:33;;;;;;;15.10;13.60;;;;;;;19.33;91.10;98450.02;112294;1196;60288;-84
2021/09/17 12:44:12;;;;;;;14.80;13.40;;;;;;;19.35;91.51;98449.58;112239;1196;65201;-84
2021/09/17 12:46:44;;;;;;;15.60;14.20;;;;;;;19.55;91.83;98449.19;112350;1196;61444;-84
2021/09/17 12:49:17;;;;;;;14.50;13.10;;;;;;;19.77;90.96;98444.02;112435;1196;64019;-85
2021/09/17 12:51:55;;;;;;;16.80;15.20;;;;;;;19.90;90.62;98439.09;112669;1196;60332;-84
2021/09/17 12:54:31;;;;;;;18.00;16.30;;;;;;;19.95;90.47;98437.28;112468;1196;60245;-84
2021/09/17 12:57:15;;;;;;;16.60;14.90;;;;;;;19.99;89.85;98430.29;112236;1196;65236;-85
2021/09/17 13:00:06;;;;;;;16.80;15.20;;;;;;;19.95;89.20;98431.63;112234;1195;60961;-84
2021/09/17 13:02:34;;;;;;;17.10;15.60;;;;;;;19.84;88.48;98432.29;112240;1196;64020;-84
2021/09/17 13:05:07;;;;;;;16.00;14.60;;;;;;;19.73;88.85;98431.33;112164;1195;60269;-85
2021/09/17 13:07:34;;;;;;;17.30;15.70;;;;;;;19.49;88.85;98429.72;112241;1196;60201;-84
2021/09/17 13:10:00;;;;;;;18.30;16.70;;;;;;;19.22;89.41;98431.42;112329;1195;64878;-84
2021/09/17 13:12:28;;;;;;;19.30;17.40;;;;;;;18.92;89.62;98433.33;112276;1196;60865;-85
2021/09/17 13:14:55;;;;;;;17.60;16.00;;;;;;;18.66;90.27;98432.55;112163;1196;63996;-86
2021/09/17 13:17:22;;;;;;;27.90;25.10;;;;;;;18.45;90.39;98434.62;112233;1195;60248;-83
2021/09/17 13:19:49;;;;;;;15.10;13.60;;;;;;;18.25;89.97;98441.53;112293;1195;60226;-83
2021/09/17 13:22:16;;;;;;;13.30;12.10;;;;;;;17.97;89.29;98443.24;112324;1196;65186;-86
2021/09/17 13:24:42;;;;;;;14.60;13.20;;;;;;;17.72;89.73;98443.71;112254;1196;60195;-86
2021/09/17 13:27:09;;;;;;;16.10;14.50;;;;;;;17.51;90.11;98442.33;112282;1196;63835;-86
2021/09/17 13:29:36;;;;;;;26.40;23.90;;;;;;;17.35;90.77;98442.51;112261;1196;60248;-83